Time;durP1;ratioP1;P1;durP2;ratioP2;P2;SDS_P1;SDS_P2;PMS_P1;PMS_P2;Temp;Humidity;BMP_temperature;BMP_pressure;BME280_temperature;BME280_humidity;BME280_pressure;Samples;Min_cycle;Max_cycle;Signal;HPM_P1;HPM_P2
2021/01/25 00:00:14;;;;;;;25.70;18.17;;;1.60;90.80;;;;;;5088989;28;20051;-62
2021/01/25 00:02:40;;;;;;;27.50;17.63;;;1.70;90.40;;;;;;5085823;28;20062;-59
2021/01/25 00:05:07;;;;;;;29.42;18.27;;;1.70;90.40;;;;;;5087929;28;20059;-59
2021/01/25 00:07:33;;;;;;;28.15;18.52;;;1.70;90.20;;;;;;5079768;28;20494;-61
2021/01/25 00:09:59;;;;;;;28.40;18.77;;;1.60;90.20;;;;;;5088746;28;20491;-62
2021/01/25 00:12:28;;;;;;;26.30;17.77;;;1.60;90.20;;;;;;5085662;28;20510;-63
2021/01/25 00:14:54;;;;;;;26.27;17.27;;;1.50;90.40;;;;;;5084939;28;20036;-60
2021/01/25 00:17:20;;;;;;;28.83;17.25;;;1.50;90.30;;;;;;5089484;28;20047;-60
2021/01/25 00:19:46;;;;;;;28.30;18.00;;;1.50;90.40;;;;;;5095934;28;20032;-62
2021/01/25 00:22:12;;;;;;;28.30;17.70;;;1.40;90.40;;;;;;5087510;28;20038;-61
2021/01/25 00:24:37;;;;;;;24.42;16.80;;;1.30;90.60;;;;;;5070706;28;20042;-59
2021/01/25 00:27:03;;;;;;;27.75;17.33;;;1.20;90.70;;;;;;5076972;28;20103;-61
2021/01/25 00:29:29;;;;;;;29.00;17.08;;;1.30;90.60;;;;;;5087908;28;20097;-60
2021/01/25 00:31:55;;;;;;;27.15;16.55;;;1.40;90.30;;;;;;5082761;28;20032;-61
2021/01/25 00:34:26;;;;;;;27.60;16.48;;;1.30;90.40;;;;;;5088153;28;20040;-61
2021/01/25 00:36:52;;;;;;;26.38;16.73;;;1.40;90.50;;;;;;5086227;28;20040;-63
2021/01/25 00:39:17;;;;;;;27.48;16.88;;;1.40;90.30;;;;;;5093218;28;20462;-61
2021/01/25 00:41:43;;;;;;;25.85;17.00;;;1.40;90.30;;;;;;5091766;28;20127;-62
2021/01/25 00:44:08;;;;;;;27.63;16.08;;;1.30;90.40;;;;;;5079520;28;20033;-63
2021/01/25 00:46:34;;;;;;;26.40;16.77;;;1.30;90.60;;;;;;5065136;28;20348;-64
2021/01/25 00:49:00;;;;;;;28.08;15.65;;;1.30;90.60;;;;;;5074707;28;20036;-62
2021/01/25 00:51:26;;;;;;;22.95;14.65;;;1.40;90.10;;;;;;5056737;28;20403;-64
2021/01/25 00:53:51;;;;;;;26.65;15.82;;;1.50;89.70;;;;;;5075268;28;20109;-61
2021/01/25 00:56:17;;;;;;;25.70;15.05;;;1.40;89.80;;;;;;5068301;28;20025;-62
2021/01/25 00:58:42;;;;;;;25.17;15.25;;;1.40;89.80;;;;;;5068282;28;20639;-61
2021/01/25 01:01:08;;;;;;;22.65;15.32;;;1.50;89.00;;;;;;5070915;28;20115;-61
2021/01/25 01:03:35;;;;;;;24.15;14.00;;;1.40;89.50;;;;;;5075194;28;20487;-62
2021/01/25 01:06:00;;;;;;;22.90;14.48;;;1.40;89.50;;;;;;5086862;22;20040;-59
2021/01/25 01:08:26;;;;;;;25.27;15.65;;;1.30;89.70;;;;;;5065492;28;20068;-59
2021/01/25 01:10:51;;;;;;;19.15;13.20;;;1.10;90.20;;;;;;5056781;28;20368;-59
2021/01/25 01:13:17;;;;;;;21.45;13.88;;;1.20;90.30;;;;;;5068971;28;20044;-60
2021/01/25 01:15:43;;;;;;;19.70;13.63;;;1.20;90.00;;;;;;5059707;28;20040;-59
2021/01/25 01:18:09;;;;;;;21.95;14.50;;;1.20;90.00;;;;;;5074804;28;20040;-59
2021/01/25 01:20:35;;;;;;;21.70;13.02;;;1.00;90.40;;;;;;5075963;28;20532;-60
2021/01/25 01:23:00;;;;;;;23.95;14.77;;;1.00;90.60;;;;;;5088282;28;20342;-61
2021/01/25 01:25:26;;;;;;;23.33;13.25;;;1.10;90.10;;;;;;5071800;28;20039;-61
2021/01/25 01:27:52;;;;;;;21.13;13.50;;;1.30;89.30;;;;;;5069521;28;20066;-61
2021/01/25 01:30:18;;;;;;;23.95;14.10;;;1.30;89.50;;;;;;5051709;28;20044;-63
2021/01/25 01:32:44;;;;;;;22.10;13.52;;;1.20;89.70;;;;;;5069517;28;20044;-63
2021/01/25 01:35:09;;;;;;;20.88;13.10;;;1.30;89.80;;;;;;5075468;28;20059;-59
2021/01/25 01:37:36;;;;;;;26.67;13.85;;;1.30;89.40;;;;;;5061737;28;20486;-62
2021/01/25 01:40:05;;;;;;;22.33;13.43;;;1.30;89.30;;;;;;5064942;28;20039;-58
2021/01/25 01:42:31;;;;;;;23.33;13.93;;;1.30;89.20;;;;;;5085429;28;20094;-63
2021/01/25 01:44:56;;;;;;;20.75;13.57;;;1.40;89.40;;;;;;5075197;28;20491;-62
2021/01/25 01:47:22;;;;;;;27.90;13.95;;;1.40;88.90;;;;;;5088745;28;20024;-63
2021/01/25 01:49:50;;;;;;;20.75;13.57;;;1.40;88.80;;;;;;5073881;28;20121;-62
2021/01/25 01:52:16;;;;;;;20.98;13.88;;;1.50;88.30;;;;;;5073886;28;20040;-59
2021/01/25 01:54:43;;;;;;;21.80;14.00;;;1.60;88.20;;;;;;5058346;28;20115;-60
2021/01/25 01:57:09;;;;;;;21.85;13.40;;;1.50;88.80;;;;;;5084276;28;20151;-61
2021/01/25 01:59:35;;;;;;;23.50;14.27;;;1.50;88.80;;;;;;5086955;28;20035;-63
2021/01/25 02:02:01;;;;;;;25.77;14.68;;;1.40;88.40;;;;;;5059250;28;20027;-62
2021/01/25 02:04:28;;;;;;;23.23;13.52;;;1.40;88.70;;;;;;5076770;28;20047;-62
2021/01/25 02:07:00;;;;;;;18.85;13.43;;;1.50;88.10;;;;;;5072703;28;20055;-60
2021/01/25 02:09:27;;;;;;;22.00;13.25;;;1.60;87.70;;;;;;5056050;28;20104;-61
2021/01/25 02:11:54;;;;;;;26.17;14.05;;;1.60;88.10;;;;;;5062257;28;20043;-62
2021/01/25 02:14:20;;;;;;;20.75;13.25;;;1.60;87.70;;;;;;5076082;28;20093;-57
2021/01/25 02:16:46;;;;;;;23.23;14.00;;;1.60;87.30;;;;;;5085490;28;20047;-60
2021/01/25 02:19:22;;;;;;;22.73;14.20;;;1.50;87.50;;;;;;5087292;28;20059;-59
2021/01/25 02:22:12;;;;;;;22.83;14.13;;;1.50;88.30;;;;;;5085013;28;20479;-64
2021/01/25 02:24:45;;;;;;;24.42;12.93;;;1.50;88.00;;;;;;5079995;28;20043;-61
2021/01/25 02:27:32;;;;;;;21.48;13.38;;;1.60;87.30;;;;;;5076984;28;20048;-64
2021/01/25 02:29:59;;;;;;;22.42;13.35;;;1.70;87.00;;;;;;5061968;28;20493;-57
2021/01/25 02:32:29;;;;;;;21.98;13.65;;;1.70;87.10;;;;;;5078628;28;20040;-61
2021/01/25 02:34:55;;;;;;;22.00;13.82;;;1.70;87.30;;;;;;5057672;28;20177;-62
2021/01/25 02:37:22;;;;;;;22.20;13.90;;;1.50;87.30;;;;;;5040245;28;20103;-60
2021/01/25 02:39:50;;;;;;;20.92;13.80;;;1.50;88.10;;;;;;5058330;28;20074;-61
2021/01/25 02:42:16;;;;;;;22.20;14.27;;;1.60;87.30;;;;;;5053160;28;20044;-61
2021/01/25 02:44:43;;;;;;;22.48;14.27;;;1.50;87.50;;;;;;5070347;28;20036;-61
2021/01/25 02:47:11;;;;;;;23.23;13.88;;;1.60;87.10;;;;;;5055132;28;20313;-60
2021/01/25 02:49:38;;;;;;;21.67;14.07;;;1.70;88.50;;;;;;5071804;28;20070;-61
2021/01/25 02:52:06;;;;;;;22.45;14.25;;;1.60;87.10;;;;;;5053605;28;20039;-62
2021/01/25 02:54:33;;;;;;;22.40;14.40;;;1.60;86.70;;;;;;5069479;28;20067;-61
2021/01/25 02:56:59;;;;;;;22.17;14.23;;;1.60;86.50;;;;;;5053060;28;20033;-60
2021/01/25 02:59:25;;;;;;;22.48;14.18;;;1.60;86.50;;;;;;5071740;28;20085;-62
2021/01/25 03:01:51;;;;;;;25.15;13.80;;;1.70;86.00;;;;;;5071773;28;20107;-61
2021/01/25 03:04:17;;;;;;;20.95;14.68;;;1.70;85.60;;;;;;5052097;28;20063;-63
2021/01/25 03:06:45;;;;;;;20.90;13.82;;;1.70;85.30;;;;;;5055604;28;20123;-61
2021/01/25 03:09:11;;;;;;;22.55;13.82;;;1.60;85.60;;;;;;5054128;28;20033;-62
2021/01/25 03:11:40;;;;;;;23.95;14.68;;;1.70;85.50;;;;;;5052304;28;20048;-58
2021/01/25 03:14:09;;;;;;;24.02;14.30;;;1.50;86.00;;;;;;5071211;28;20403;-61
2021/01/25 03:16:35;;;;;;;25.05;14.88;;;1.40;86.20;;;;;;5057258;28;20538;-60
2021/01/25 03:19:01;;;;;;;24.02;14.45;;;1.40;86.50;;;;;;5051709;28;20124;-60
2021/01/25 03:21:27;;;;;;;23.98;15.02;;;1.40;86.40;;;;;;5067345;28;20028;-61
2021/01/25 03:23:52;;;;;;;25.80;16.00;;;1.40;86.80;;;;;;5053205;28;20044;-62
2021/01/25 03:26:19;;;;;;;24.33;14.57;;;1.30;86.80;;;;;;5060264;28;20513;-60
2021/01/25 03:28:44;;;;;;;25.88;14.85;;;1.20;87.20;;;;;;5069654;28;20384;-61
2021/01/25 03:31:10;;;;;;;25.42;15.35;;;1.20;87.20;;;;;;5066289;28;20029;-60
2021/01/25 03:33:35;;;;;;;23.20;14.13;;;1.20;87.30;;;;;;5033541;28;20434;-61
2021/01/25 03:36:01;;;;;;;24.00;14.88;;;1.20;87.40;;;;;;5054073;28;20044;-62
2021/01/25 03:38:27;;;;;;;23.25;14.40;;;1.30;87.80;;;;;;5058293;28;20044;-61
2021/01/25 03:40:52;;;;;;;22.83;15.82;;;1.30;87.30;;;;;;5058054;28;20499;-62
2021/01/25 03:43:18;;;;;;;25.58;15.20;;;1.30;87.20;;;;;;5056229;28;20048;-60
2021/01/25 03:45:43;;;;;;;25.40;14.02;;;1.30;86.80;;;;;;5060532;28;20048;-62
2021/01/25 03:48:09;;;;;;;22.77;13.38;;;1.30;87.30;;;;;;5054254;28;20097;-62
2021/01/25 03:50:35;;;;;;;21.33;14.60;;;1.40;87.00;;;;;;5070847;28;20037;-63
2021/01/25 03:53:02;;;;;;;22.52;14.32;;;1.40;86.50;;;;;;5066857;28;20450;-62
2021/01/25 03:55:27;;;;;;;22.35;14.07;;;1.50;86.50;;;;;;5070409;28;20021;-62
2021/01/25 03:57:53;;;;;;;22.58;13.70;;;1.50;86.70;;;;;;5048133;28;20119;-64
2021/01/25 04:00:21;;;;;;;25.52;15.48;;;1.60;85.70;;;;;;5056163;28;20106;-62
2021/01/25 04:02:47;;;;;;;23.52;14.07;;;1.60;86.00;;;;;;5068874;28;20068;-61
2021/01/25 04:05:13;;;;;;;22.77;14.15;;;1.60;85.90;;;;;;5032865;28;20057;-63
2021/01/25 04:07:40;;;;;;;25.05;15.18;;;1.60;86.20;;;;;;5032957;28;20044;-62
2021/01/25 04:10:06;;;;;;;23.40;14.80;;;1.60;86.40;;;;;;5060248;28;20504;-62
2021/01/25 04:12:32;;;;;;;27.05;15.13;;;1.60;86.20;;;;;;5068628;28;20044;-63
2021/01/25 04:14:58;;;;;;;21.52;14.50;;;1.60;86.20;;;;;;5065177;28;20036;-64
2021/01/25 04:17:25;;;;;;;24.25;15.10;;;1.60;86.20;;;;;;5073674;28;20037;-64
2021/01/25 04:19:50;;;;;;;23.65;13.88;;;1.60;86.00;;;;;;5087946;28;20093;-64
2021/01/25 04:22:16;;;;;;;23.13;15.57;;;1.60;86.40;;;;;;5077188;28;20036;-65
2021/01/25 04:24:42;;;;;;;25.23;15.02;;;1.60;86.40;;;;;;5093331;28;20085;-63
2021/01/25 04:27:11;;;;;;;26.15;14.98;;;1.60;86.30;;;;;;5076894;28;20039;-64
2021/01/25 04:29:38;;;;;;;23.92;15.27;;;1.60;85.80;;;;;;5064736;28;20094;-63
2021/01/25 04:32:04;;;;;;;23.77;15.23;;;1.50;86.20;;;;;;5085134;28;20036;-64
2021/01/25 04:34:29;;;;;;;26.05;15.23;;;1.50;86.30;;;;;;5090366;28;20051;-64
2021/01/25 04:36:55;;;;;;;23.85;16.48;;;1.40;86.80;;;;;;5063791;28;20089;-64
2021/01/25 04:39:20;;;;;;;22.80;14.50;;;1.30;87.30;;;;;;5068644;28;20040;-64
2021/01/25 04:41:46;;;;;;;24.85;14.98;;;1.40;87.40;;;;;;5067849;28;20040;-64
2021/01/25 04:44:14;;;;;;;23.65;14.63;;;1.40;87.00;;;;;;5073841;28;20029;-64
2021/01/25 04:46:40;;;;;;;24.08;14.32;;;1.40;87.80;;;;;;5073783;28;20032;-64
2021/01/25 04:49:06;;;;;;;24.42;15.30;;;1.40;87.90;;;;;;5036558;28;20472;-64
2021/01/25 04:51:33;;;;;;;25.85;14.32;;;1.40;87.60;;;;;;5059348;28;20037;-65
2021/01/25 04:54:00;;;;;;;24.13;14.70;;;1.50;87.70;;;;;;5054168;28;20071;-64
2021/01/25 04:56:26;;;;;;;25.17;15.55;;;1.60;87.10;;;;;;5061902;28;20082;-63
2021/01/25 04:58:53;;;;;;;21.52;13.35;;;1.50;87.30;;;;;;5074288;28;20060;-64
2021/01/25 05:01:18;;;;;;;23.40;14.63;;;1.60;87.10;;;;;;5061895;28;20189;-64
2021/01/25 05:03:44;;;;;;;22.20;14.48;;;1.50;86.90;;;;;;5055032;28;20029;-64
2021/01/25 05:06:10;;;;;;;26.13;15.35;;;1.60;87.10;;;;;;5072344;28;20056;-64
2021/01/25 05:08:35;;;;;;;25.80;14.65;;;1.50;86.70;;;;;;5073969;28;20035;-64
2021/01/25 05:11:31;;;;;;;25.50;15.32;;;1.60;86.40;;;;;;5064645;28;20040;-65
2021/01/25 05:14:06;;;;;;;25.27;15.63;;;1.50;86.60;;;;;;5059861;28;20044;-64
2021/01/25 05:16:33;;;;;;;22.40;13.60;;;1.50;86.50;;;;;;5073899;28;20032;-64
2021/01/25 05:19:02;;;;;;;25.08;14.88;;;1.60;85.70;;;;;;5073307;28;20375;-64
2021/01/25 05:21:43;;;;;;;25.80;14.85;;;1.50;86.30;;;;;;5073853;28;20042;-64
2021/01/25 05:24:11;;;;;;;24.35;14.30;;;1.50;86.60;;;;;;5065075;28;20029;-64
2021/01/25 05:26:50;;;;;;;25.23;15.20;;;1.40;87.00;;;;;;5036020;28;20055;-64
2021/01/25 05:29:26;;;;;;;25.25;15.70;;;1.50;87.00;;;;;;5062532;28;20033;-61
2021/01/25 05:31:52;;;;;;;24.45;14.32;;;1.50;86.90;;;;;;5073194;28;20079;-64
2021/01/25 05:34:19;;;;;;;24.20;15.00;;;1.50;87.10;;;;;;5072865;28;20504;-64
2021/01/25 05:36:45;;;;;;;22.50;13.82;;;1.60;87.00;;;;;;5073230;28;20055;-64
2021/01/25 05:39:14;;;;;;;24.50;14.38;;;1.70;86.70;;;;;;5060102;28;20041;-63
2021/01/25 05:41:39;;;;;;;22.15;14.00;;;1.70;86.60;;;;;;5053706;28;20133;-64
2021/01/25 05:44:14;;;;;;;52.67;27.52;;;1.70;86.90;;;;;;5053084;28;20639;-64
2021/01/25 05:46:39;;;;;;;45.10;25.08;;;1.70;86.80;;;;;;5053534;28;20033;-63
2021/01/25 05:49:05;;;;;;;28.88;17.05;;;1.80;86.80;;;;;;5035891;28;20042;-63
2021/01/25 05:51:32;;;;;;;28.83;16.05;;;1.80;86.70;;;;;;5046018;28;20037;-63
2021/01/25 05:54:04;;;;;;;25.75;15.30;;;1.80;86.70;;;;;;5035236;28;20103;-67
2021/01/25 05:56:29;;;;;;;23.20;14.65;;;1.80;86.60;;;;;;5038608;28;20025;-63
2021/01/25 05:58:56;;;;;;;23.27;14.70;;;1.80;86.60;;;;;;5073674;28;20224;-64
2021/01/25 06:01:23;;;;;;;21.92;13.88;;;1.80;86.50;;;;;;5063502;28;20048;-65
2021/01/25 06:03:49;;;;;;;24.83;15.88;;;1.80;86.70;;;;;;5057064;28;20047;-64
2021/01/25 06:06:26;;;;;;;23.73;14.05;;;1.80;86.80;;;;;;5072727;28;20047;-65
2021/01/25 06:09:04;;;;;;;24.20;14.85;;;1.80;86.70;;;;;;5053196;28;20530;-64
2021/01/25 06:11:32;;;;;;;26.38;15.00;;;1.80;86.10;;;;;;5066549;28;20047;-64
2021/01/25 06:14:02;;;;;;;24.25;15.45;;;1.90;86.10;;;;;;5072701;28;20028;-62
2021/01/25 06:16:29;;;;;;;24.90;15.68;;;1.90;86.10;;;;;;5073343;28;20045;-64
2021/01/25 06:19:04;;;;;;;26.75;15.45;;;1.90;86.20;;;;;;5054580;28;20055;-64
2021/01/25 06:21:33;;;;;;;23.38;14.23;;;1.90;85.50;;;;;;5071718;28;20025;-63
2021/01/25 06:24:01;;;;;;;25.95;15.65;;;1.90;85.40;;;;;;5061151;28;20028;-64
2021/01/25 06:26:30;;;;;;;26.83;14.73;;;2.00;85.40;;;;;;5053234;28;20068;-64
2021/01/25 06:29:00;;;;;;;25.27;14.25;;;2.00;85.50;;;;;;5035134;28;20037;-65
2021/01/25 06:31:26;;;;;;;26.35;15.23;;;2.00;85.50;;;;;;5042640;28;20107;-64
2021/01/25 06:33:52;;;;;;;27.17;16.85;;;2.00;85.50;;;;;;5065631;28;20112;-64
2021/01/25 06:36:19;;;;;;;28.15;16.33;;;2.00;85.70;;;;;;5053176;28;20155;-64
2021/01/25 06:38:48;;;;;;;25.70;15.40;;;2.00;86.20;;;;;;5065026;28;20060;-64
2021/01/25 06:41:15;;;;;;;42.25;23.73;;;2.10;86.20;;;;;;5089996;28;20123;-64
2021/01/25 06:43:47;;;;;;;29.48;16.83;;;2.00;85.90;;;;;;5042224;28;20037;-65
2021/01/25 06:46:18;;;;;;;27.15;15.45;;;1.80;85.20;;;;;;5057566;28;20040;-63
2021/01/25 06:48:50;;;;;;;27.23;16.45;;;1.80;86.10;;;;;;5051713;28;20036;-63
2021/01/25 06:51:18;;;;;;;25.65;15.20;;;1.60;87.30;;;;;;5039563;28;20074;-64
2021/01/25 06:53:44;;;;;;;28.13;16.95;;;1.60;87.20;;;;;;5039016;28;20025;-64
2021/01/25 06:56:09;;;;;;;32.63;17.48;;;1.40;87.80;;;;;;5052278;28;20372;-64
2021/01/25 06:58:38;;;;;;;27.50;15.73;;;1.20;88.80;;;;;;5036728;28;20029;-64
2021/01/25 07:01:06;;;;;;;28.85;16.00;;;1.20;89.10;;;;;;5053753;28;20055;-64
2021/01/25 07:03:53;;;;;;;28.92;16.63;;;1.30;88.50;;;;;;5056173;28;20131;-65
2021/01/25 07:06:19;;;;;;;29.13;15.73;;;1.20;88.20;;;;;;5053984;28;20029;-65
2021/01/25 07:08:56;;;;;;;27.15;14.35;;;1.20;88.20;;;;;;5072189;28;20549;-66
2021/01/25 07:11:26;;;;;;;25.95;15.75;;;1.30;88.30;;;;;;5036248;28;20109;-63
2021/01/25 07:13:52;;;;;;;23.17;15.00;;;1.30;87.80;;;;;;5072315;28;20039;-64
2021/01/25 07:16:18;;;;;;;27.67;15.30;;;1.40;87.90;;;;;;5054524;28;20025;-64
2021/01/25 07:18:44;;;;;;;27.05;15.80;;;1.50;87.90;;;;;;5053917;28;20438;-63
2021/01/25 07:21:13;;;;;;;28.08;15.88;;;1.50;87.50;;;;;;5072577;28;20043;-64
2021/01/25 07:23:44;;;;;;;22.42;14.45;;;1.60;87.10;;;;;;5071680;28;20037;-64
2021/01/25 07:26:11;;;;;;;26.00;14.55;;;1.70;87.30;;;;;;5054531;28;20048;-64
2021/01/25 07:28:37;;;;;;;27.63;15.50;;;1.80;87.20;;;;;;5073765;28;20040;-65
2021/01/25 07:31:03;;;;;;;31.10;16.08;;;1.80;87.00;;;;;;5055627;28;20033;-65
2021/01/25 07:33:29;;;;;;;23.00;14.77;;;1.70;87.00;;;;;;5067747;28;20066;-64
2021/01/25 07:35:55;;;;;;;28.38;17.05;;;1.80;86.70;;;;;;5060529;28;20107;-63
2021/01/25 07:38:22;;;;;;;28.25;16.55;;;1.80;86.50;;;;;;5062912;28;20394;-64
2021/01/25 07:40:49;;;;;;;27.40;16.23;;;1.80;86.40;;;;;;5054442;28;20037;-65
2021/01/25 07:43:16;;;;;;;26.67;16.25;;;1.90;86.30;;;;;;5043523;28;20036;-63
2021/01/25 07:45:42;;;;;;;28.15;14.75;;;1.90;85.90;;;;;;5069929;28;20032;-65
2021/01/25 07:48:14;;;;;;;30.05;16.67;;;2.00;85.70;;;;;;5070679;28;20063;-65
2021/01/25 07:50:51;;;;;;;30.42;17.95;;;2.10;85.50;;;;;;5060623;28;20040;-65
2021/01/25 07:53:17;;;;;;;24.95;15.15;;;2.20;85.10;;;;;;5040139;28;20120;-64
2021/01/25 07:55:42;;;;;;;24.92;15.30;;;2.20;84.60;;;;;;5069770;28;20124;-64
2021/01/25 07:58:14;;;;;;;27.95;14.93;;;2.30;84.40;;;;;;5075474;28;20060;-64
2021/01/25 08:00:40;;;;;;;25.23;16.50;;;2.40;84.00;;;;;;5074050;28;20032;-64
2021/01/25 08:03:18;;;;;;;34.00;17.40;;;2.40;83.60;;;;;;5065772;28;20067;-64
2021/01/25 08:05:48;;;;;;;29.42;16.48;;;2.40;83.00;;;;;;5056717;28;20060;-64
2021/01/25 08:08:14;;;;;;;27.83;16.30;;;2.40;82.50;;;;;;5075793;28;20063;-64
2021/01/25 08:10:40;;;;;;;31.45;17.90;;;2.30;83.30;;;;;;5075879;28;20047;-66
2021/01/25 08:13:17;;;;;;;30.45;17.30;;;2.10;83.60;;;;;;5058028;28;20431;-64
2021/01/25 08:16:10;;;;;;;29.20;17.10;;;1.90;85.10;;;;;;5055483;28;20037;-64
2021/01/25 08:18:54;;;;;;;27.15;15.32;;;1.70;86.30;;;;;;5070221;28;20024;-65
2021/01/25 08:21:31;;;;;;;30.30;17.17;;;1.70;86.50;;;;;;5075652;28;20040;-65
2021/01/25 08:24:01;;;;;;;26.15;15.93;;;1.70;85.30;;;;;;5056858;28;20032;-64
2021/01/25 08:26:29;;;;;;;29.20;15.82;;;1.80;85.30;;;;;;5059504;28;20034;-64
2021/01/25 08:29:04;;;;;;;25.65;15.57;;;1.90;83.80;;;;;;5042400;28;20028;-64
2021/01/25 08:31:36;;;;;;;27.38;15.75;;;1.80;83.70;;;;;;5077611;28;20025;-63
2021/01/25 08:34:05;;;;;;;27.98;16.52;;;1.80;83.30;;;;;;5039132;28;20077;-65
2021/01/25 08:36:35;;;;;;;27.48;16.52;;;1.60;83.80;;;;;;5066112;28;20028;-65
2021/01/25 08:39:13;;;;;;;23.95;14.95;;;1.40;84.50;;;;;;5044883;28;20037;-65
2021/01/25 08:41:53;;;;;;;29.35;16.98;;;1.30;84.60;;;;;;5055166;28;20040;-64
2021/01/25 08:44:24;;;;;;;29.95;17.15;;;1.30;84.60;;;;;;5046209;28;20170;-65
2021/01/25 08:46:52;;;;;;;34.13;18.58;;;1.30;84.60;;;;;;5075349;28;20127;-65
2021/01/25 08:49:23;;;;;;;31.80;18.58;;;1.30;85.00;;;;;;5057484;28;20380;-64
2021/01/25 08:51:58;;;;;;;32.35;18.75;;;1.50;84.40;;;;;;5083300;28;20037;-64
2021/01/25 08:54:30;;;;;;;39.38;20.67;;;1.60;84.30;;;;;;5053538;28;20029;-62
2021/01/25 08:56:55;;;;;;;37.88;20.58;;;1.70;83.60;;;;;;5024592;28;20059;-64
2021/01/25 08:59:33;;;;;;;35.35;20.08;;;1.50;83.20;;;;;;5074736;28;20067;-64
2021/01/25 09:02:17;;;;;;;39.08;21.23;;;1.40;83.50;;;;;;5074012;28;20071;-64
2021/01/25 09:04:43;;;;;;;44.22;22.08;;;1.20;84.70;;;;;;5072520;28;20036;-65
2021/01/25 09:07:13;;;;;;;44.10;21.25;;;1.20;85.40;;;;;;5055203;28;20052;-64
2021/01/25 09:09:38;;;;;;;36.38;20.08;;;1.50;84.50;;;;;;5020492;28;20510;-64
2021/01/25 09:12:04;;;;;;;40.83;19.83;;;1.50;83.80;;;;;;5056435;28;20037;-64
2021/01/25 09:14:30;;;;;;;35.38;19.80;;;1.50;83.30;;;;;;5075056;28;20546;-64
2021/01/25 09:16:55;;;;;;;37.85;19.02;;;1.50;83.80;;;;;;5055450;28;20574;-64
2021/01/25 09:19:21;;;;;;;36.05;20.83;;;1.50;83.60;;;;;;5059990;28;20495;-64
2021/01/25 09:21:46;;;;;;;36.28;21.23;;;1.50;83.50;;;;;;5036512;28;20056;-63
2021/01/25 09:24:12;;;;;;;30.75;17.55;;;1.50;84.30;;;;;;5045613;28;20039;-64
2021/01/25 09:26:38;;;;;;;28.95;16.90;;;1.60;83.80;;;;;;5073410;28;20040;-64
2021/01/25 09:29:03;;;;;;;28.60;16.60;;;1.70;82.90;;;;;;5074229;28;20032;-64
2021/01/25 09:31:29;;;;;;;32.40;17.33;;;1.70;82.90;;;;;;5073987;28;20086;-65
2021/01/25 09:33:56;;;;;;;30.58;18.52;;;1.60;83.10;;;;;;5042319;28;20037;-63
2021/01/25 09:36:21;;;;;;;28.02;16.67;;;1.70;82.80;;;;;;5062790;28;20123;-63
2021/01/25 09:38:47;;;;;;;31.23;16.48;;;1.60;83.10;;;;;;5072198;28;20056;-64
2021/01/25 09:41:16;;;;;;;27.77;16.70;;;1.60;84.10;;;;;;5063883;28;20037;-65
2021/01/25 09:43:55;;;;;;;31.15;16.90;;;1.50;83.20;;;;;;5054708;28;20041;-64
2021/01/25 09:46:27;;;;;;;28.70;16.27;;;1.60;83.90;;;;;;5069300;28;20664;-66
2021/01/25 09:48:53;;;;;;;27.13;16.35;;;1.70;82.90;;;;;;5052658;28;20032;-66
2021/01/25 09:51:21;;;;;;;31.45;16.95;;;1.70;83.10;;;;;;5073608;28;20081;-64
2021/01/25 09:53:49;;;;;;;31.85;19.02;;;1.60;83.30;;;;;;5073639;28;20037;-64
2021/01/25 09:56:14;;;;;;;29.45;17.33;;;1.70;83.40;;;;;;5066445;28;20356;-64
2021/01/25 09:58:40;;;;;;;29.17;17.25;;;1.80;83.20;;;;;;5073451;28;20041;-66
2021/01/25 10:01:06;;;;;;;28.17;17.23;;;1.80;82.70;;;;;;5055462;28;20032;-66
2021/01/25 10:03:32;;;;;;;27.58;16.85;;;1.80;82.70;;;;;;5073175;28;20028;-64
2021/01/25 10:06:07;;;;;;;30.77;17.13;;;1.70;82.90;;;;;;5087757;28;20509;-67
2021/01/25 10:08:33;;;;;;;27.92;17.92;;;1.70;83.20;;;;;;5072868;28;20033;-64
2021/01/25 10:10:59;;;;;;;32.78;18.52;;;1.90;83.20;;;;;;5073254;28;20048;-62
2021/01/25 10:13:27;;;;;;;37.60;19.98;;;2.00;82.40;;;;;;5073243;28;20415;-64
2021/01/25 10:15:52;;;;;;;37.60;20.20;;;2.10;82.90;;;;;;5071495;28;20072;-63
2021/01/25 10:18:18;;;;;;;38.83;20.45;;;2.10;83.00;;;;;;5071739;28;20066;-63
2021/01/25 10:20:44;;;;;;;31.85;17.55;;;2.10;83.20;;;;;;5059958;28;20067;-64
2021/01/25 10:23:09;;;;;;;33.92;19.13;;;2.20;83.70;;;;;;5053032;28;20491;-63
2021/01/25 10:25:35;;;;;;;28.60;18.45;;;2.30;83.10;;;;;;5052580;28;20043;-62
2021/01/25 10:28:01;;;;;;;32.75;19.35;;;2.30;83.20;;;;;;5054238;28;20090;-63
2021/01/25 10:30:29;;;;;;;33.17;18.38;;;2.30;84.40;;;;;;5058770;28;20035;-63
2021/01/25 10:32:55;;;;;;;33.22;17.80;;;2.30;82.80;;;;;;5072259;28;20475;-63
2021/01/25 10:35:21;;;;;;;28.48;16.95;;;2.40;82.60;;;;;;5071390;28;20033;-62
2021/01/25 10:37:57;;;;;;;32.78;17.88;;;2.50;82.00;;;;;;5067158;28;20089;-64
2021/01/25 10:40:22;;;;;;;29.10;17.48;;;2.40;81.80;;;;;;5056649;28;20032;-63
2021/01/25 10:42:51;;;;;;;27.30;17.73;;;2.50;82.30;;;;;;5054852;28;20089;-62
2021/01/25 10:45:17;;;;;;;29.55;18.63;;;2.60;80.60;;;;;;5068596;28;20068;-63
2021/01/25 10:47:45;;;;;;;28.15;17.75;;;2.50;80.90;;;;;;5055671;28;20498;-63
2021/01/25 10:50:11;;;;;;;26.33;17.33;;;2.50;81.70;;;;;;5070992;28;20491;-64
2021/01/25 10:52:38;;;;;;;27.10;17.38;;;2.60;80.70;;;;;;5032375;28;20048;-63
2021/01/25 10:55:04;;;;;;;27.27;17.08;;;2.60;80.60;;;;;;5071887;28;20035;-62
2021/01/25 10:57:33;;;;;;;26.80;16.40;;;2.80;80.70;;;;;;5072737;28;20032;-64
2021/01/25 11:00:02;;;;;;;28.45;17.88;;;2.50;82.20;;;;;;5053809;28;20560;-62
2021/01/25 11:02:28;;;;;;;29.15;18.05;;;2.80;80.70;;;;;;5051092;28;20478;-62
2021/01/25 11:04:54;;;;;;;32.97;19.35;;;2.80;81.30;;;;;;5072235;28;20078;-63
2021/01/25 11:07:19;;;;;;;27.80;17.35;;;3.00;80.40;;;;;;5065054;28;20041;-63
2021/01/25 11:09:45;;;;;;;27.58;16.13;;;2.80;80.70;;;;;;5071493;28;20052;-63
2021/01/25 11:12:12;;;;;;;33.22;18.65;;;2.80;80.80;;;;;;5055351;28;20558;-63
2021/01/25 11:14:41;;;;;;;27.58;17.20;;;3.00;80.30;;;;;;5067578;28;20070;-62
2021/01/25 11:17:06;;;;;;;34.25;19.88;;;2.70;81.90;;;;;;5041405;28;20119;-64
2021/01/25 11:19:32;;;;;;;39.08;18.05;;;3.00;81.70;;;;;;5052592;28;20477;-63
2021/01/25 11:22:01;;;;;;;29.70;17.92;;;3.20;81.30;;;;;;5063886;28;20119;-64
2021/01/25 11:24:27;;;;;;;30.95;17.90;;;3.40;79.60;;;;;;5073067;28;20115;-64
2021/01/25 11:26:53;;;;;;;27.67;17.15;;;3.40;80.30;;;;;;5088096;28;20131;-62
2021/01/25 11:29:19;;;;;;;26.13;17.15;;;3.50;79.10;;;;;;5056363;28;20032;-64
2021/01/25 11:31:45;;;;;;;30.15;18.10;;;3.60;79.10;;;;;;5068092;28;20044;-64
2021/01/25 11:34:10;;;;;;;29.85;20.05;;;3.40;79.10;;;;;;5062697;28;20501;-64
2021/01/25 11:36:36;;;;;;;27.58;17.92;;;3.60;79.70;;;;;;5063686;28;20033;-64
2021/01/25 11:39:02;;;;;;;30.08;18.65;;;3.90;77.90;;;;;;5054100;28;20037;-64
2021/01/25 11:41:28;;;;;;;27.92;17.75;;;4.10;77.60;;;;;;5027527;28;20044;-64
2021/01/25 11:43:53;;;;;;;34.80;18.60;;;4.00;77.80;;;;;;5071658;28;20399;-62
2021/01/25 11:46:19;;;;;;;27.40;17.83;;;4.00;78.00;;;;;;5028612;28;20112;-62
2021/01/25 11:48:45;;;;;;;28.13;17.92;;;4.10;78.20;;;;;;5045154;28;20032;-64
2021/01/25 11:51:10;;;;;;;32.78;18.83;;;4.20;76.80;;;;;;5049952;28;20040;-63
2021/01/25 11:53:36;;;;;;;36.58;19.10;;;4.10;77.30;;;;;;5062055;28;20048;-64
2021/01/25 11:56:02;;;;;;;34.88;19.73;;;4.20;76.80;;;;;;5053125;28;20091;-62
2021/01/25 11:58:27;;;;;;;30.98;17.70;;;4.00;75.80;;;;;;5052655;28;20033;-63
2021/01/25 12:00:53;;;;;;;26.08;17.60;;;3.90;76.30;;;;;;5066903;28;20060;-64
2021/01/25 12:03:18;;;;;;;30.80;18.80;;;3.90;77.10;;;;;;5033208;28;20037;-64
2021/01/25 12:05:44;;;;;;;25.83;17.20;;;4.30;76.60;;;;;;5067470;28;20043;-64
2021/01/25 12:08:11;;;;;;;36.28;18.90;;;4.10;75.30;;;;;;5070254;28;20054;-63
2021/01/25 12:10:37;;;;;;;32.92;19.05;;;4.00;76.90;;;;;;5054245;28;20101;-63
2021/01/25 12:13:06;;;;;;;27.58;18.33;;;4.00;77.20;;;;;;5065394;28;20028;-65
2021/01/25 12:15:31;;;;;;;30.33;19.98;;;3.70;79.00;;;;;;5051713;28;20037;-63
2021/01/25 12:17:57;;;;;;;36.10;22.45;;;3.50;79.10;;;;;;5034885;28;20033;-65
2021/01/25 12:20:23;;;;;;;29.92;18.75;;;3.90;78.20;;;;;;5018139;28;20163;-64
2021/01/25 12:22:48;;;;;;;30.70;18.67;;;3.80;77.10;;;;;;5051606;28;20142;-64
2021/01/25 12:25:14;;;;;;;32.38;18.08;;;3.80;77.90;;;;;;5052214;28;20044;-62
2021/01/25 12:27:42;;;;;;;28.38;17.83;;;3.90;77.30;;;;;;5056706;28;20033;-64
2021/01/25 12:30:11;;;;;;;30.02;19.20;;;3.80;77.90;;;;;;5051850;28;20033;-63
2021/01/25 12:32:36;;;;;;;32.08;19.33;;;3.80;77.90;;;;;;5052009;28;20044;-64
2021/01/25 12:35:03;;;;;;;31.00;19.40;;;3.80;77.80;;;;;;5071466;28;20036;-64
2021/01/25 12:37:31;;;;;;;28.48;17.95;;;4.10;77.10;;;;;;5054577;28;20050;-64